createdAt,value
2023-06-30T00:07:54.450Z,2.22
2023-06-30T00:13:23.214Z,1.88
2023-06-30T00:18:48.353Z,2.47
2023-06-30T00:30:38.090Z,2.15
2023-06-30T00:36:17.396Z,2.05
2023-06-30T00:47:29.639Z,4.03
2023-06-30T00:52:57.046Z,2.08
2023-06-30T00:58:29.968Z,2.95
2023-06-30T01:03:59.142Z,1.90
2023-06-30T01:09:44.411Z,4.10
2023-06-30T01:15:20.777Z,2.80
2023-06-30T01:21:11.984Z,2.28
2023-06-30T01:26:57.161Z,1.92
2023-06-30T01:32:40.713Z,2.30
2023-06-30T01:38:07.489Z,3.05
2023-06-30T01:43:50.126Z,2.65
2023-06-30T01:49:43.257Z,2.83
2023-06-30T01:55:16.601Z,2.38
2023-06-30T02:00:27.696Z,2.38
2023-06-30T02:05:41.196Z,2.25
2023-06-30T02:10:52.874Z,2.05
2023-06-30T02:15:58.798Z,2.50
2023-06-30T02:21:05.830Z,2.85
2023-06-30T02:26:22.233Z,2.08
2023-06-30T02:31:36.652Z,1.80
2023-06-30T02:42:14.679Z,3.63
2023-06-30T02:47:29.884Z,2.35
2023-06-30T02:52:37.472Z,2.20
2023-06-30T02:57:44.038Z,2.38
2023-06-30T03:02:57.811Z,2.38
2023-06-30T03:08:03.035Z,1.88
2023-06-30T03:13:12.841Z,2.35
2023-06-30T03:18:23.241Z,1.92
2023-06-30T03:23:39.584Z,2.45
2023-06-30T03:28:48.471Z,2.03
2023-06-30T03:33:56.884Z,1.98
2023-06-30T03:39:03.088Z,2.75
2023-06-30T03:44:12.827Z,2.15
2023-06-30T03:49:50.827Z,2.20
2023-06-30T03:55:17.379Z,2.17
2023-06-30T04:00:54.563Z,2.47
2023-06-30T04:06:20.397Z,2.40
2023-06-30T04:11:53.621Z,2.22
2023-06-30T04:17:21.908Z,3.00
2023-06-30T04:23:06.327Z,2.90
2023-06-30T04:28:41.522Z,3.05
2023-06-30T04:34:12.276Z,3.22
2023-06-30T04:39:46.104Z,4.57
2023-06-30T04:45:16.397Z,3.35
2023-06-30T04:50:51.352Z,2.90
2023-06-30T04:56:38.645Z,3.70
2023-06-30T05:02:27.374Z,3.53
2023-06-30T05:13:46.154Z,5.00
2023-06-30T05:19:15.378Z,4.28
2023-06-30T05:24:54.284Z,3.85
2023-06-30T05:31:04.562Z,4.97
2023-06-30T05:36:29.514Z,4.72
2023-06-30T05:42:03.023Z,5.05
2023-06-30T05:47:28.627Z,6.57
2023-06-30T05:53:00.666Z,8.02
2023-06-30T05:58:27.402Z,6.57
2023-06-30T06:03:58.714Z,6.60
2023-06-30T06:09:46.480Z,6.90
2023-06-30T06:15:59.474Z,8.77
2023-06-30T06:21:48.056Z,5.90
2023-06-30T06:27:59.618Z,4.50
2023-06-30T06:33:52.836Z,3.70
2023-06-30T06:39:30.692Z,3.60
2023-06-30T06:45:13.429Z,4.75
2023-06-30T06:50:35.296Z,6.32
2023-06-30T06:55:54.000Z,4.32
2023-06-30T07:01:22.193Z,3.20
2023-06-30T07:07:21.667Z,2.03
2023-06-30T07:12:36.871Z,1.40
2023-06-30T07:17:49.334Z,0.90
2023-06-30T07:28:49.730Z,0.80
2023-06-30T07:34:42.876Z,0.60
2023-06-30T07:40:08.636Z,0.60
2023-06-30T07:45:24.928Z,0.45
2023-06-30T07:50:50.840Z,0.50
2023-06-30T07:56:12.752Z,0.55
2023-06-30T08:01:41.412Z,0.38
2023-06-30T08:07:48.670Z,0.28
2023-06-30T08:13:29.725Z,0.50
2023-06-30T08:19:22.472Z,0.13
2023-06-30T08:25:22.611Z,0.20
2023-06-30T08:31:22.125Z,0.13
2023-06-30T08:37:12.227Z,0.20
2023-06-30T08:43:00.057Z,0.10
2023-06-30T08:48:35.640Z,0.20
2023-06-30T09:24:12.300Z,0.20
2023-06-30T09:30:07.261Z,0.13
2023-06-30T09:47:18.976Z,0.50
2023-06-30T09:52:55.101Z,0.32
2023-06-30T09:58:51.665Z,0.43
2023-06-30T10:10:36.749Z,0.40
2023-06-30T10:16:16.748Z,0.40
2023-06-30T10:21:43.171Z,0.60
2023-06-30T10:27:27.683Z,0.50
2023-06-30T10:32:50.152Z,0.90
2023-06-30T10:38:22.076Z,1.30
2023-06-30T10:44:16.397Z,1.10
2023-06-30T10:49:35.887Z,1.30
2023-06-30T10:54:58.551Z,0.95
2023-06-30T11:00:40.105Z,1.05
2023-06-30T11:06:32.783Z,1.10
2023-06-30T11:12:10.689Z,1.35
2023-06-30T11:18:13.998Z,1.73
2023-06-30T11:24:30.976Z,3.05
2023-06-30T11:30:48.889Z,1.30
2023-06-30T11:36:57.817Z,1.33
2023-06-30T11:43:11.173Z,1.20
2023-06-30T12:12:19.485Z,2.10
2023-06-30T12:18:19.038Z,1.40
2023-06-30T12:24:11.630Z,1.95
2023-06-30T12:30:14.672Z,1.33
2023-06-30T12:36:36.245Z,1.35
2023-06-30T12:42:32.988Z,2.67
2023-06-30T12:48:27.968Z,1.35
2023-06-30T13:00:58.856Z,1.10
2023-06-30T13:12:32.933Z,1.63
2023-06-30T13:19:02.921Z,1.38
2023-06-30T13:30:44.282Z,2.33
2023-06-30T13:42:18.905Z,1.20
2023-06-30T13:59:38.145Z,1.20
2023-06-30T14:05:18.250Z,1.10
2023-06-30T14:10:48.371Z,1.52
2023-06-30T14:22:11.559Z,1.60
2023-06-30T14:40:22.496Z,0.80
2023-06-30T14:45:35.469Z,1.05
2023-06-30T14:51:12.396Z,1.75
2023-06-30T14:56:40.440Z,0.90
2023-06-30T15:02:09.376Z,1.52
2023-06-30T15:08:32.139Z,1.20
2023-06-30T15:20:45.459Z,0.95
2023-06-30T15:54:41.529Z,1.65
2023-06-30T16:06:13.530Z,2.60
2023-06-30T16:12:29.868Z,1.50
2023-06-30T16:24:53.780Z,1.55
2023-06-30T16:37:52.841Z,1.40
2023-06-30T16:55:42.383Z,1.15
2023-06-30T17:03:03.237Z,0.95
2023-06-30T17:28:16.407Z,1.20
2023-06-30T17:40:33.896Z,1.35
2023-06-30T17:47:18.977Z,0.90
2023-06-30T18:05:30.663Z,1.30
2023-06-30T18:11:27.268Z,0.93
